createdAt,value
2017-02-16T00:01:28.607Z,19.7
2017-02-16T00:04:01.245Z,19.7
2017-02-16T00:06:33.892Z,19.8
2017-02-16T00:09:06.573Z,19.8
2017-02-16T00:11:39.643Z,19.8
2017-02-16T00:14:12.279Z,19.8
2017-02-16T00:16:45.793Z,19.9
2017-02-16T00:19:18.850Z,19.9
2017-02-16T00:21:51.520Z,19.9
2017-02-16T00:24:24.156Z,19.9
2017-02-16T00:26:56.810Z,19.9
2017-02-16T00:29:29.483Z,19.9
2017-02-16T00:32:02.532Z,20
2017-02-16T00:34:35.162Z,20
2017-02-16T00:37:08.655Z,20
2017-02-16T00:39:41.935Z,20
2017-02-16T00:42:14.586Z,20
2017-02-16T00:44:47.215Z,20
2017-02-16T00:47:20.260Z,20
2017-02-16T00:49:52.891Z,20
2017-02-16T00:52:25.512Z,20
2017-02-16T00:54:58.138Z,20
2017-02-16T00:57:30.777Z,20
2017-02-16T01:00:03.851Z,20
2017-02-16T01:02:36.928Z,20
2017-02-16T01:05:10.040Z,20
2017-02-16T01:07:42.694Z,20
2017-02-16T01:10:16.223Z,20
2017-02-16T01:12:48.833Z,20
2017-02-16T01:15:21.905Z,20
2017-02-16T01:17:54.571Z,20
2017-02-16T01:20:27.220Z,20
2017-02-16T01:22:59.857Z,20
2017-02-16T01:25:32.923Z,20
2017-02-16T01:28:05.579Z,20
2017-02-16T01:30:38.639Z,20
2017-02-16T01:33:11.705Z,20
2017-02-16T01:35:44.775Z,20
2017-02-16T01:38:17.836Z,20
2017-02-16T01:40:50.503Z,20
2017-02-16T01:43:23.564Z,20
2017-02-16T01:45:56.209Z,20
2017-02-16T01:48:29.467Z,20
2017-02-16T01:51:02.528Z,20
2017-02-16T01:53:35.184Z,20
2017-02-16T01:56:07.813Z,20
2017-02-16T01:58:40.436Z,20
2017-02-16T02:01:13.086Z,20
2017-02-16T02:03:46.107Z,20
2017-02-16T02:06:18.729Z,20
2017-02-16T02:08:51.786Z,20
2017-02-16T02:11:24.413Z,20
2017-02-16T02:13:57.052Z,20
2017-02-16T02:16:29.692Z,20
2017-02-16T02:19:02.735Z,20
2017-02-16T02:21:35.427Z,20
2017-02-16T02:24:08.042Z,20
2017-02-16T02:26:40.866Z,20
2017-02-16T02:29:13.492Z,20
2017-02-16T02:31:46.119Z,20
2017-02-16T02:34:18.744Z,20
2017-02-16T02:36:51.354Z,20
2017-02-16T02:39:23.986Z,20
2017-02-16T02:41:56.608Z,20
2017-02-16T02:44:29.684Z,20
2017-02-16T02:47:03.165Z,20
2017-02-16T02:49:35.795Z,20
2017-02-16T02:52:08.427Z,20
2017-02-16T02:54:41.112Z,20
2017-02-16T02:57:14.190Z,20
2017-02-16T02:59:46.790Z,20
2017-02-16T03:02:19.456Z,20
2017-02-16T03:04:52.504Z,20
2017-02-16T03:07:25.139Z,20
2017-02-16T03:09:58.198Z,20
2017-02-16T03:12:31.665Z,20
2017-02-16T03:15:04.323Z,19.9
2017-02-16T03:17:36.944Z,20
2017-02-16T03:20:09.584Z,20
2017-02-16T03:22:42.194Z,20
2017-02-16T03:25:14.853Z,20
2017-02-16T03:27:47.480Z,20
2017-02-16T03:30:20.525Z,20
2017-02-16T03:32:53.568Z,20
2017-02-16T03:35:26.627Z,20
2017-02-16T03:37:59.296Z,20
2017-02-16T03:40:31.947Z,20
2017-02-16T03:43:04.595Z,20
2017-02-16T03:45:37.645Z,20
2017-02-16T03:48:10.302Z,20
2017-02-16T03:50:43.361Z,20
2017-02-16T03:53:16.006Z,20
2017-02-16T03:55:49.073Z,20
2017-02-16T03:58:21.702Z,20
2017-02-16T04:00:54.347Z,20
2017-02-16T04:03:26.974Z,20
2017-02-16T04:06:00.025Z,20
2017-02-16T04:08:33.088Z,20
2017-02-16T04:11:06.595Z,20
2017-02-16T04:13:39.261Z,20
2017-02-16T04:16:12.334Z,20
2017-02-16T04:18:45.400Z,20
2017-02-16T04:21:18.070Z,20
2017-02-16T04:23:50.708Z,20
2017-02-16T04:26:23.793Z,20
2017-02-16T04:28:56.876Z,20
2017-02-16T04:31:29.500Z,20
2017-02-16T04:34:02.981Z,19.9
2017-02-16T04:36:35.621Z,20
2017-02-16T04:39:08.264Z,20
2017-02-16T04:41:40.895Z,19.9
2017-02-16T04:44:13.547Z,19.9
2017-02-16T04:46:46.201Z,20
2017-02-16T04:49:18.866Z,20
2017-02-16T04:51:51.510Z,20
2017-02-16T04:54:24.164Z,20
2017-02-16T04:56:57.249Z,20
2017-02-16T04:59:29.882Z,20
2017-02-16T05:02:03.162Z,20
2017-02-16T05:04:35.798Z,20
2017-02-16T05:07:08.457Z,20
2017-02-16T05:09:41.686Z,20
2017-02-16T05:12:14.759Z,20
2017-02-16T05:14:47.394Z,20
2017-02-16T05:17:20.425Z,20
2017-02-16T05:19:53.054Z,20
2017-02-16T05:22:25.668Z,20
2017-02-16T05:24:58.718Z,20
2017-02-16T05:27:31.799Z,20
2017-02-16T05:30:04.449Z,20
2017-02-16T05:32:37.109Z,20
2017-02-16T05:35:10.178Z,19.9
2017-02-16T05:37:42.785Z,20
2017-02-16T05:40:15.417Z,20
2017-02-16T05:42:48.523Z,19.9
2017-02-16T05:45:21.188Z,19.9
2017-02-16T05:47:53.818Z,19.9
2017-02-16T05:50:26.466Z,19.9
2017-02-16T05:52:59.546Z,19.9
2017-02-16T05:55:32.608Z,19.9
2017-02-16T05:58:05.226Z,19.9
2017-02-16T06:00:37.875Z,19.9
2017-02-16T06:03:10.520Z,19.9
2017-02-16T06:05:43.153Z,19.9
2017-02-16T06:08:15.774Z,19.9
2017-02-16T06:10:48.429Z,19.9
2017-02-16T06:13:21.090Z,19.9
2017-02-16T06:15:53.736Z,19.9
2017-02-16T06:18:26.360Z,19.9
2017-02-16T06:20:58.977Z,19.9
2017-02-16T06:23:31.814Z,19.9
2017-02-16T06:26:04.906Z,19.9
2017-02-16T06:28:37.557Z,19.9
2017-02-16T06:31:10.609Z,20
2017-02-16T06:33:43.250Z,20
2017-02-16T06:36:16.326Z,20
2017-02-16T06:38:49.374Z,20
2017-02-16T06:41:22.013Z,19.9
2017-02-16T06:43:55.113Z,20
2017-02-16T06:46:27.790Z,20
2017-02-16T06:49:00.863Z,20
2017-02-16T06:51:33.973Z,20
2017-02-16T06:54:06.589Z,20
2017-02-16T06:56:39.238Z,20
2017-02-16T06:59:11.854Z,20
2017-02-16T07:01:44.939Z,20
2017-02-16T07:04:17.590Z,20
2017-02-16T07:06:50.227Z,20
2017-02-16T07:09:23.301Z,20
2017-02-16T07:11:55.926Z,20
2017-02-16T07:14:28.584Z,20
2017-02-16T07:17:02.079Z,20
2017-02-16T07:19:34.719Z,20
2017-02-16T07:22:07.364Z,20
2017-02-16T07:24:40.424Z,20
2017-02-16T07:27:13.477Z,20
2017-02-16T07:29:46.512Z,20
2017-02-16T07:32:19.557Z,20
2017-02-16T07:34:52.210Z,19.9
2017-02-16T07:37:24.866Z,20
2017-02-16T07:39:57.955Z,19.9
2017-02-16T07:42:30.581Z,19.9
2017-02-16T07:45:03.663Z,19.9
2017-02-16T07:47:36.469Z,19.9
2017-02-16T07:50:09.182Z,19.9
2017-02-16T07:52:41.871Z,20
2017-02-16T07:55:14.657Z,19.9
2017-02-16T07:57:48.165Z,19.9
2017-02-16T08:00:21.284Z,19.9
2017-02-16T08:02:54.043Z,19.9
2017-02-16T08:05:26.864Z,19.9
2017-02-16T08:07:59.518Z,19.9
2017-02-16T08:10:32.632Z,19.9
2017-02-16T08:13:05.306Z,19.9
2017-02-16T08:15:37.972Z,19.8
2017-02-16T08:18:10.691Z,19.8
2017-02-16T08:20:43.971Z,19.8
2017-02-16T08:23:16.675Z,19.8
2017-02-16T08:25:49.320Z,19.8
2017-02-16T08:28:22.835Z,19.8
2017-02-16T08:30:55.677Z,19.8
2017-02-16T08:33:28.502Z,19.7
2017-02-16T08:36:01.159Z,19.8
2017-02-16T08:38:33.892Z,19.8
2017-02-16T08:41:06.551Z,19.8
2017-02-16T08:43:39.228Z,19.8
2017-02-16T08:46:11.882Z,19.8
2017-02-16T08:48:45.001Z,19.8
2017-02-16T08:51:17.783Z,19.8
2017-02-16T08:53:52.762Z,19.8
2017-02-16T08:56:26.083Z,19.8
2017-02-16T08:58:59.169Z,19.9
2017-02-16T09:01:31.896Z,19.9
2017-02-16T09:04:05.100Z,19.9
2017-02-16T09:06:37.803Z,19.9
2017-02-16T09:09:10.492Z,19.9
2017-02-16T09:11:43.655Z,19.8
2017-02-16T09:14:16.713Z,19.8
2017-02-16T09:16:49.403Z,19.8
2017-02-16T09:19:22.053Z,19.8
2017-02-16T09:21:54.731Z,19.8
2017-02-16T09:24:27.436Z,19.8
2017-02-16T09:27:00.266Z,19.8
2017-02-16T09:29:33.334Z,19.8
2017-02-16T09:32:06.171Z,19.8
2017-02-16T09:34:39.583Z,19.7
2017-02-16T09:37:12.258Z,19.7
2017-02-16T09:39:44.929Z,19.7
2017-02-16T09:42:18.026Z,19.7
2017-02-16T09:44:50.689Z,19.7
2017-02-16T09:47:23.815Z,19.6
2017-02-16T09:49:56.605Z,19.6
2017-02-16T09:52:29.522Z,19.6
2017-02-16T09:55:02.216Z,19.6
2017-02-16T09:57:34.931Z,19.6
2017-02-16T10:00:07.601Z,19.6
2017-02-16T10:02:40.448Z,19.6
2017-02-16T10:05:13.592Z,19.6
2017-02-16T10:07:46.241Z,19.6
2017-02-16T10:10:19.004Z,19.6
2017-02-16T10:12:51.640Z,19.6
2017-02-16T10:15:24.279Z,19.6
2017-02-16T10:17:57.800Z,19.6
2017-02-16T10:20:31.359Z,19.6
2017-02-16T10:23:10.951Z,19.6
2017-02-16T10:25:44.175Z,19.6
2017-02-16T10:28:16.865Z,19.6
2017-02-16T10:30:49.971Z,19.6
2017-02-16T10:33:22.693Z,19.6
2017-02-16T10:35:55.590Z,19.6
2017-02-16T10:38:28.407Z,19.6
2017-02-16T10:41:01.084Z,19.6
2017-02-16T10:43:34.269Z,19.6
2017-02-16T10:46:06.936Z,19.6
2017-02-16T10:48:39.772Z,19.6
2017-02-16T10:51:12.502Z,19.6
2017-02-16T10:53:45.972Z,19.6
2017-02-16T10:56:18.652Z,19.6
2017-02-16T10:58:51.341Z,19.6
2017-02-16T11:01:24.853Z,19.5
2017-02-16T11:03:57.704Z,19.5
2017-02-16T11:06:30.777Z,19.5
2017-02-16T11:09:03.434Z,19.5
2017-02-16T11:11:36.114Z,19.5
2017-02-16T11:14:09.380Z,19.5
2017-02-16T11:16:42.195Z,19.5
2017-02-16T11:19:14.846Z,19.5
2017-02-16T11:21:47.932Z,19.5
2017-02-16T11:24:21.008Z,19.5
2017-02-16T11:26:53.664Z,19.5
2017-02-16T11:29:26.789Z,19.5
2017-02-16T11:31:59.750Z,19.5
2017-02-16T11:34:32.844Z,19.5
2017-02-16T11:37:05.470Z,19.5
2017-02-16T11:39:38.570Z,19.6
2017-02-16T11:42:11.211Z,19.6
2017-02-16T11:44:43.839Z,19.6
2017-02-16T11:47:16.467Z,19.6
2017-02-16T11:49:49.842Z,19.6
2017-02-16T11:52:22.910Z,19.7
2017-02-16T11:54:55.555Z,19.7
2017-02-16T11:57:28.647Z,19.7
2017-02-16T12:00:01.271Z,19.7
2017-02-16T12:02:33.925Z,19.7
2017-02-16T12:05:06.593Z,19.7
2017-02-16T12:07:39.232Z,19.7
2017-02-16T12:10:11.868Z,19.7
2017-02-16T12:12:44.927Z,19.7
2017-02-16T12:15:18.400Z,19.7
2017-02-16T12:17:51.473Z,19.7
2017-02-16T12:20:24.635Z,19.7
2017-02-16T12:22:57.733Z,19.7
2017-02-16T12:25:30.362Z,19.7
2017-02-16T12:28:02.988Z,19.7
2017-02-16T12:30:35.620Z,19.7
2017-02-16T12:33:08.544Z,19.7
2017-02-16T12:35:41.649Z,19.7
2017-02-16T12:38:14.280Z,19.7
2017-02-16T12:40:46.922Z,19.7
2017-02-16T12:43:19.993Z,19.7
2017-02-16T12:45:52.640Z,19.7
2017-02-16T12:48:25.291Z,19.7
2017-02-16T12:50:57.962Z,19.7
2017-02-16T12:53:30.606Z,19.6
2017-02-16T12:56:03.652Z,19.6
2017-02-16T12:58:37.136Z,19.6
2017-02-16T13:01:09.776Z,19.6
2017-02-16T13:03:42.429Z,19.6
2017-02-16T13:06:15.521Z,19.6
2017-02-16T13:08:48.145Z,19.6
2017-02-16T13:11:20.793Z,19.6
2017-02-16T13:13:53.938Z,19.6
2017-02-16T13:16:26.693Z,19.7
2017-02-16T13:19:00.162Z,19.6
2017-02-16T13:21:32.779Z,19.6
2017-02-16T13:24:05.401Z,19.7
2017-02-16T13:26:38.034Z,19.7
2017-02-16T13:29:10.701Z,19.7
2017-02-16T13:31:43.758Z,19.7
2017-02-16T13:34:17.124Z,19.7
2017-02-16T13:36:50.816Z,19.7
2017-02-16T13:39:24.315Z,19.7
2017-02-16T13:41:56.986Z,19.7
2017-02-16T13:44:30.046Z,19.7
2017-02-16T13:47:03.073Z,19.6
2017-02-16T13:49:35.688Z,19.7
2017-02-16T13:52:08.749Z,19.6
2017-02-16T13:54:41.834Z,19.6
2017-02-16T13:57:15.279Z,19.7
2017-02-16T13:59:48.357Z,19.7
2017-02-16T14:02:20.991Z,19.7
2017-02-16T14:04:54.021Z,19.7
2017-02-16T14:07:26.622Z,19.7
2017-02-16T14:09:59.666Z,19.6
2017-02-16T14:12:32.293Z,19.6
2017-02-16T14:15:05.376Z,19.6
2017-02-16T14:17:37.995Z,19.7
2017-02-16T14:20:10.610Z,19.7
2017-02-16T14:22:44.489Z,19.7
2017-02-16T14:30:31.401Z,19.7
2017-02-16T14:33:03.987Z,19.7
2017-02-16T14:35:36.926Z,19.6
2017-02-16T14:38:09.486Z,19.6
2017-02-16T14:40:41.987Z,19.6
2017-02-16T14:43:14.552Z,19.6
2017-02-16T14:45:47.524Z,19.6
2017-02-16T14:48:20.473Z,19.6
2017-02-16T14:50:53.025Z,19.6
2017-02-16T14:53:25.545Z,19.6
2017-02-16T14:55:58.538Z,19.7
2017-02-16T14:58:31.069Z,19.7
2017-02-16T15:01:04.053Z,19.7
2017-02-16T15:03:36.998Z,19.7
2017-02-16T15:06:09.555Z,19.7
2017-02-16T15:08:42.978Z,19.7
2017-02-16T15:11:15.519Z,19.6
2017-02-16T15:13:48.479Z,19.6
2017-02-16T15:16:21.022Z,19.6
2017-02-16T15:18:53.541Z,19.6
2017-02-16T15:21:26.091Z,19.6
2017-02-16T15:23:58.664Z,19.6
2017-02-16T15:26:31.315Z,19.6
2017-02-16T15:29:03.920Z,19.6
2017-02-16T15:31:36.487Z,19.5
2017-02-16T15:34:09.554Z,19.5
2017-02-16T15:36:43.001Z,19.5
2017-02-16T15:39:15.559Z,19.4
2017-02-16T15:41:48.171Z,19.3
2017-02-16T15:44:20.909Z,19.3
2017-02-16T15:46:53.742Z,19.3
2017-02-16T15:49:26.285Z,19.2
2017-02-16T15:51:59.637Z,19.1
2017-02-16T15:54:32.762Z,19.1
2017-02-16T15:57:05.459Z,19.1
2017-02-16T15:59:38.446Z,19.1
2017-02-16T16:02:10.967Z,19.1
2017-02-16T16:04:44.362Z,19.1
2017-02-16T16:07:17.449Z,19.1
2017-02-16T16:09:50.125Z,19
2017-02-16T16:12:22.743Z,19
2017-02-16T16:14:55.372Z,19
2017-02-16T16:17:28.407Z,19
2017-02-16T16:20:00.926Z,19
2017-02-16T16:22:33.732Z,18.9
2017-02-16T16:25:06.955Z,18.9
2017-02-16T16:27:40.028Z,18.9
2017-02-16T16:30:12.621Z,18.9
2017-02-16T16:32:45.174Z,18.9
2017-02-16T16:35:17.812Z,18.9
2017-02-16T16:37:50.444Z,18.9
2017-02-16T16:40:23.879Z,18.9
2017-02-16T16:42:56.464Z,18.9
2017-02-16T16:45:29.114Z,18.8
2017-02-16T16:48:01.803Z,18.8
2017-02-16T16:50:34.492Z,18.8
2017-02-16T16:53:07.564Z,18.8
2017-02-16T16:55:40.554Z,18.8
2017-02-16T16:58:13.163Z,18.8
2017-02-16T17:00:46.186Z,18.9
2017-02-16T17:03:19.416Z,18.9
2017-02-16T17:05:51.979Z,19
2017-02-16T17:08:24.534Z,19
2017-02-16T17:10:57.540Z,19.1
2017-02-16T17:13:30.274Z,19.1
2017-02-16T17:16:02.958Z,19.1
2017-02-16T17:18:35.850Z,19.2
2017-02-16T17:21:08.496Z,19.2
2017-02-16T17:23:41.990Z,19.3
2017-02-16T17:26:15.431Z,19.3
2017-02-16T17:28:47.991Z,19.3
2017-02-16T17:31:20.545Z,19.3
2017-02-16T17:33:53.087Z,19.3
2017-02-16T17:36:25.667Z,19.3
2017-02-16T17:38:58.532Z,19.3
2017-02-16T17:41:31.489Z,19.4
2017-02-16T17:44:04.792Z,19.4
2017-02-16T17:46:37.767Z,19.4
2017-02-16T17:49:10.335Z,19.4
2017-02-16T17:51:43.530Z,19.4
2017-02-16T17:54:16.085Z,19.4
2017-02-16T17:56:50.064Z,19.4
2017-02-16T17:59:23.074Z,19.4
2017-02-16T18:01:55.636Z,19.5
2017-02-16T18:04:28.616Z,19.5
2017-02-16T18:07:01.252Z,19.5
2017-02-16T18:09:34.388Z,19.5
2017-02-16T18:12:07.066Z,19.5
2017-02-16T18:14:40.025Z,19.5
2017-02-16T18:17:12.685Z,19.5
2017-02-16T18:19:45.306Z,19.5
2017-02-16T18:22:17.850Z,19.5
2017-02-16T18:24:50.849Z,19.5
2017-02-16T18:27:23.858Z,19.4
2017-02-16T18:29:56.450Z,19.4
2017-02-16T18:32:29.024Z,19.4
2017-02-16T18:35:02.040Z,19.4
2017-02-16T18:37:34.605Z,19.4
2017-02-16T18:40:07.528Z,19.4
2017-02-16T18:42:40.911Z,19.4
2017-02-16T18:45:14.438Z,19.4
2017-02-16T18:47:47.424Z,19.4
2017-02-16T18:50:20.068Z,19.5
2017-02-16T18:52:52.660Z,19.5
2017-02-16T18:55:25.211Z,19.5
2017-02-16T18:57:57.863Z,19.5
2017-02-16T19:00:30.866Z,19.5
2017-02-16T19:03:03.882Z,19.5
2017-02-16T19:05:36.863Z,19.5
2017-02-16T19:08:09.444Z,19.6
2017-02-16T19:10:42.007Z,19.6
2017-02-16T19:13:14.582Z,19.6
2017-02-16T19:15:47.153Z,19.6
2017-02-16T19:18:19.721Z,19.6
2017-02-16T19:20:52.896Z,19.6
2017-02-16T19:23:25.918Z,19.6
2017-02-16T19:25:58.463Z,19.6
2017-02-16T19:28:31.018Z,19.6
2017-02-16T19:31:03.576Z,19.6
2017-02-16T19:33:36.112Z,19.6
2017-02-16T19:36:09.077Z,19.6
2017-02-16T19:38:42.044Z,19.6
2017-02-16T19:41:14.600Z,19.6
2017-02-16T19:43:47.169Z,19.6
2017-02-16T19:46:20.113Z,19.6
2017-02-16T19:48:53.088Z,19.6
2017-02-16T19:51:26.192Z,19.6
2017-02-16T19:53:58.731Z,19.6
2017-02-16T19:56:31.269Z,19.6
2017-02-16T19:59:04.426Z,19.6
2017-02-16T20:01:37.007Z,19.6
2017-02-16T20:04:10.103Z,19.6
2017-02-16T20:06:42.650Z,19.6
2017-02-16T20:09:15.193Z,19.6
2017-02-16T20:11:47.788Z,19.6
2017-02-16T20:14:20.346Z,19.6
2017-02-16T20:16:53.809Z,19.6
2017-02-16T20:19:26.347Z,19.6
2017-02-16T20:21:59.320Z,19.6
2017-02-16T20:24:32.339Z,19.6
2017-02-16T20:27:04.897Z,19.6
2017-02-16T20:29:37.451Z,19.7
2017-02-16T20:32:09.958Z,19.7
2017-02-16T20:34:42.522Z,19.7
2017-02-16T20:37:15.485Z,19.7
2017-02-16T20:39:48.882Z,19.7
2017-02-16T20:42:22.331Z,19.7
2017-02-16T20:44:55.093Z,19.7
2017-02-16T20:47:28.073Z,19.7
2017-02-16T20:50:00.644Z,19.7
2017-02-16T20:52:33.594Z,19.7
2017-02-16T20:55:06.136Z,19.7
2017-02-16T20:57:38.694Z,19.7
2017-02-16T21:00:11.318Z,19.7
2017-02-16T21:02:43.848Z,19.7
2017-02-16T21:05:16.835Z,19.7
2017-02-16T21:07:49.379Z,19.7
2017-02-16T21:10:22.343Z,19.8
2017-02-16T21:12:55.309Z,19.7
2017-02-16T21:15:27.903Z,19.7
2017-02-16T21:18:00.503Z,19.7
2017-02-16T21:20:33.039Z,19.7
2017-02-16T21:23:05.575Z,19.7
2017-02-16T21:25:38.626Z,19.7
2017-02-16T21:28:11.192Z,19.7
2017-02-16T21:30:43.725Z,19.7
2017-02-16T21:33:16.301Z,19.7
2017-02-16T21:35:49.249Z,19.7
2017-02-16T21:38:22.209Z,19.7
2017-02-16T21:40:54.740Z,19.7
2017-02-16T21:43:27.274Z,19.7
2017-02-16T21:46:00.420Z,19.7
2017-02-16T21:48:32.965Z,19.7
2017-02-16T21:51:05.524Z,19.7
2017-02-16T21:53:38.061Z,19.6
2017-02-16T21:56:11.125Z,19.6
2017-02-16T21:58:43.642Z,19.6
2017-02-16T22:01:16.187Z,19.6
2017-02-16T22:03:48.768Z,19.6
2017-02-16T22:06:21.331Z,19.6
2017-02-16T22:08:53.992Z,19.6
2017-02-16T22:11:26.524Z,19.5
2017-02-16T22:13:59.516Z,19.5
2017-02-16T22:16:32.087Z,19.5
2017-02-16T22:19:04.616Z,19.5
2017-02-16T22:21:37.206Z,19.5
2017-02-16T22:24:09.735Z,19.6
2017-02-16T22:26:43.528Z,19.6
2017-02-16T22:29:16.514Z,19.6
2017-02-16T22:31:49.040Z,19.6
2017-02-16T22:34:21.722Z,19.6
2017-02-16T22:36:54.822Z,19.6
2017-02-16T22:39:27.500Z,19.6
2017-02-16T22:42:00.514Z,19.6
2017-02-16T22:44:33.608Z,19.6
2017-02-16T22:47:06.246Z,19.6
2017-02-16T22:49:39.300Z,19.6
2017-02-16T22:52:12.301Z,19.6
2017-02-16T22:54:45.239Z,19.6
2017-02-16T22:57:17.796Z,19.6
2017-02-16T22:59:50.355Z,19.6
2017-02-16T23:02:23.317Z,19.7
2017-02-16T23:04:56.337Z,19.7
2017-02-16T23:07:29.791Z,19.7
2017-02-16T23:10:02.751Z,19.7
2017-02-16T23:12:35.757Z,19.7
2017-02-16T23:15:08.739Z,19.7
2017-02-16T23:17:41.736Z,19.7
2017-02-16T23:20:14.267Z,19.7
2017-02-16T23:22:47.232Z,19.7
2017-02-16T23:25:19.763Z,19.7
2017-02-16T23:27:52.328Z,19.7
2017-02-16T23:30:25.271Z,19.7
2017-02-16T23:32:57.967Z,19.7
2017-02-16T23:35:30.579Z,19.7
2017-02-16T23:38:03.142Z,19.7
2017-02-16T23:40:35.684Z,19.7
2017-02-16T23:43:08.524Z,19.7
2017-02-16T23:45:41.078Z,19.7
2017-02-16T23:48:14.661Z,19.7
2017-02-16T23:50:47.311Z,19.7
2017-02-16T23:53:20.077Z,19.7
2017-02-16T23:55:52.819Z,19.7
2017-02-16T23:58:25.808Z,19.7
